sensor_id;sensor_type;location;lat;lon;timestamp;temperature;humidity
18797;DHT22;9526;52.612;13.300;2023-08-07T00:01:35;15.10;99.90
18797;DHT22;9526;52.612;13.300;2023-08-07T00:04:00;15.10;99.90
18797;DHT22;9526;52.612;13.300;2023-08-07T00:06:24;15.10;99.90
18797;DHT22;9526;52.612;13.300;2023-08-07T00:08:48;15.00;99.90
18797;DHT22;9526;52.612;13.300;2023-08-07T00:11:12;15.00;99.90
18797;DHT22;9526;52.612;13.300;2023-08-07T00:13:36;15.00;99.90
18797;DHT22;9526;52.612;13.300;2023-08-07T00:15:59;15.10;99.90
18797;DHT22;9526;52.612;13.300;2023-08-07T00:18:23;15.00;99.90
18797;DHT22;9526;52.612;13.300;2023-08-07T00:20:48;15.00;99.90
18797;DHT22;9526;52.612;13.300;2023-08-07T00:23:12;15.10;99.90
18797;DHT22;9526;52.612;13.300;2023-08-07T00:25:35;15.10;99.90
18797;DHT22;9526;52.612;13.300;2023-08-07T00:27:59;15.10;99.90
18797;DHT22;9526;52.612;13.300;2023-08-07T00:30:23;15.10;99.90
18797;DHT22;9526;52.612;13.300;2023-08-07T00:32:46;15.20;99.90
18797;DHT22;9526;52.612;13.300;2023-08-07T00:35:10;15.20;99.90
18797;DHT22;9526;52.612;13.300;2023-08-07T00:37:37;15.20;99.90
18797;DHT22;9526;52.612;13.300;2023-08-07T00:40:00;15.20;99.90
18797;DHT22;9526;52.612;13.300;2023-08-07T00:42:24;15.20;99.90
18797;DHT22;9526;52.612;13.300;2023-08-07T00:44:48;15.20;99.90
18797;DHT22;9526;52.612;13.300;2023-08-07T00:47:11;15.30;99.90
18797;DHT22;9526;52.612;13.300;2023-08-07T00:49:36;15.20;99.90
18797;DHT22;9526;52.612;13.300;2023-08-07T00:52:00;15.20;99.90
18797;DHT22;9526;52.612;13.300;2023-08-07T00:54:25;15.20;99.90
18797;DHT22;9526;52.612;13.300;2023-08-07T00:56:49;15.20;99.90
18797;DHT22;9526;52.612;13.300;2023-08-07T00:59:15;15.20;99.90
18797;DHT22;9526;52.612;13.300;2023-08-07T01:01:39;15.20;99.90
18797;DHT22;9526;52.612;13.300;2023-08-07T01:04:03;15.20;99.90
18797;DHT22;9526;52.612;13.300;2023-08-07T01:06:27;15.30;99.90
18797;DHT22;9526;52.612;13.300;2023-08-07T01:08:50;15.30;99.90
18797;DHT22;9526;52.612;13.300;2023-08-07T01:11:22;15.30;99.90
18797;DHT22;9526;52.612;13.300;2023-08-07T01:13:54;15.30;99.90
18797;DHT22;9526;52.612;13.300;2023-08-07T01:16:26;15.30;99.90
18797;DHT22;9526;52.612;13.300;2023-08-07T01:18:54;15.30;99.90
18797;DHT22;9526;52.612;13.300;2023-08-07T01:21:19;15.30;99.90
18797;DHT22;9526;52.612;13.300;2023-08-07T01:23:46;15.20;99.90
18797;DHT22;9526;52.612;13.300;2023-08-07T01:26:10;15.10;99.90
18797;DHT22;9526;52.612;13.300;2023-08-07T01:28:36;15.10;99.90
18797;DHT22;9526;52.612;13.300;2023-08-07T01:31:04;15.10;99.90
18797;DHT22;9526;52.612;13.300;2023-08-07T01:33:34;15.20;99.90
18797;DHT22;9526;52.612;13.300;2023-08-07T01:36:05;15.10;99.90
18797;DHT22;9526;52.612;13.300;2023-08-07T01:38:29;15.10;99.90
18797;DHT22;9526;52.612;13.300;2023-08-07T01:40:57;15.10;99.90
18797;DHT22;9526;52.612;13.300;2023-08-07T01:43:21;15.00;99.90
18797;DHT22;9526;52.612;13.300;2023-08-07T01:45:45;15.00;99.90
18797;DHT22;9526;52.612;13.300;2023-08-07T01:48:08;15.00;99.90
18797;DHT22;9526;52.612;13.300;2023-08-07T01:50:34;14.90;99.90
18797;DHT22;9526;52.612;13.300;2023-08-07T01:52:58;14.90;99.90
18797;DHT22;9526;52.612;13.300;2023-08-07T01:55:23;14.90;99.90
18797;DHT22;9526;52.612;13.300;2023-08-07T01:57:48;14.70;99.90
18797;DHT22;9526;52.612;13.300;2023-08-07T02:00:12;14.90;99.90
18797;DHT22;9526;52.612;13.300;2023-08-07T02:02:37;14.90;99.90
18797;DHT22;9526;52.612;13.300;2023-08-07T02:05:01;14.90;99.90
18797;DHT22;9526;52.612;13.300;2023-08-07T02:07:24;14.90;99.90
18797;DHT22;9526;52.612;13.300;2023-08-07T02:09:48;14.90;99.90
18797;DHT22;9526;52.612;13.300;2023-08-07T02:12:12;14.90;99.90
18797;DHT22;9526;52.612;13.300;2023-08-07T02:14:37;14.90;99.90
18797;DHT22;9526;52.612;13.300;2023-08-07T02:17:01;14.90;99.90
18797;DHT22;9526;52.612;13.300;2023-08-07T02:19:24;14.90;99.90
18797;DHT22;9526;52.612;13.300;2023-08-07T02:21:48;14.90;99.90
18797;DHT22;9526;52.612;13.300;2023-08-07T02:24:11;14.90;99.90
18797;DHT22;9526;52.612;13.300;2023-08-07T02:26:35;14.90;99.90
18797;DHT22;9526;52.612;13.300;2023-08-07T02:28:59;14.90;99.90
18797;DHT22;9526;52.612;13.300;2023-08-07T02:31:28;14.90;99.90
18797;DHT22;9526;52.612;13.300;2023-08-07T02:33:51;14.90;99.90
18797;DHT22;9526;52.612;13.300;2023-08-07T02:36:15;14.90;99.90
18797;DHT22;9526;52.612;13.300;2023-08-07T02:38:39;14.90;99.90
18797;DHT22;9526;52.612;13.300;2023-08-07T02:41:02;14.90;99.90
18797;DHT22;9526;52.612;13.300;2023-08-07T02:43:28;14.90;99.90
18797;DHT22;9526;52.612;13.300;2023-08-07T02:45:55;14.90;99.90
18797;DHT22;9526;52.612;13.300;2023-08-07T02:48:21;14.90;99.90
18797;DHT22;9526;52.612;13.300;2023-08-07T02:50:45;15.00;99.90
18797;DHT22;9526;52.612;13.300;2023-08-07T02:53:09;15.00;99.90
18797;DHT22;9526;52.612;13.300;2023-08-07T02:55:33;15.00;99.90
18797;DHT22;9526;52.612;13.300;2023-08-07T02:57:56;15.00;99.90
18797;DHT22;9526;52.612;13.300;2023-08-07T03:00:20;15.00;99.90
18797;DHT22;9526;52.612;13.300;2023-08-07T03:02:45;15.00;99.90
18797;DHT22;9526;52.612;13.300;2023-08-07T03:05:11;15.00;99.90
18797;DHT22;9526;52.612;13.300;2023-08-07T03:07:34;15.10;99.90
18797;DHT22;9526;52.612;13.300;2023-08-07T03:09:58;15.10;99.90
18797;DHT22;9526;52.612;13.300;2023-08-07T03:12:22;15.10;99.90
18797;DHT22;9526;52.612;13.300;2023-08-07T03:14:46;15.20;99.90
18797;DHT22;9526;52.612;13.300;2023-08-07T03:17:10;15.20;99.90
18797;DHT22;9526;52.612;13.300;2023-08-07T03:19:34;15.20;99.90
18797;DHT22;9526;52.612;13.300;2023-08-07T03:21:59;15.20;99.90
18797;DHT22;9526;52.612;13.300;2023-08-07T03:24:23;15.20;99.90
18797;DHT22;9526;52.612;13.300;2023-08-07T03:26:47;15.20;99.90
18797;DHT22;9526;52.612;13.300;2023-08-07T03:29:11;15.20;99.90
18797;DHT22;9526;52.612;13.300;2023-08-07T03:31:35;15.30;99.90
18797;DHT22;9526;52.612;13.300;2023-08-07T03:33:58;15.20;99.90
18797;DHT22;9526;52.612;13.300;2023-08-07T03:36:22;15.20;99.90
18797;DHT22;9526;52.612;13.300;2023-08-07T03:38:47;15.20;99.90
18797;DHT22;9526;52.612;13.300;2023-08-07T03:41:11;15.20;99.90
18797;DHT22;9526;52.612;13.300;2023-08-07T03:43:36;15.20;99.90
18797;DHT22;9526;52.612;13.300;2023-08-07T03:46:00;15.30;99.90
18797;DHT22;9526;52.612;13.300;2023-08-07T03:48:25;15.30;99.90
18797;DHT22;9526;52.612;13.300;2023-08-07T03:50:49;15.30;99.90
18797;DHT22;9526;52.612;13.300;2023-08-07T03:53:13;15.30;99.90
18797;DHT22;9526;52.612;13.300;2023-08-07T03:55:41;15.30;99.90
18797;DHT22;9526;52.612;13.300;2023-08-07T03:58:04;15.30;99.90
18797;DHT22;9526;52.612;13.300;2023-08-07T04:00:28;15.30;99.90
18797;DHT22;9526;52.612;13.300;2023-08-07T04:02:52;15.30;99.90
18797;DHT22;9526;52.612;13.300;2023-08-07T04:05:16;15.30;99.90
18797;DHT22;9526;52.612;13.300;2023-08-07T04:07:39;15.30;99.90
18797;DHT22;9526;52.612;13.300;2023-08-07T04:10:04;15.30;99.90
18797;DHT22;9526;52.612;13.300;2023-08-07T04:12:29;15.30;99.90
18797;DHT22;9526;52.612;13.300;2023-08-07T04:14:54;15.40;99.90
18797;DHT22;9526;52.612;13.300;2023-08-07T04:17:17;15.30;99.90
18797;DHT22;9526;52.612;13.300;2023-08-07T04:19:41;15.30;99.90
18797;DHT22;9526;52.612;13.300;2023-08-07T04:22:05;15.40;99.90
18797;DHT22;9526;52.612;13.300;2023-08-07T04:24:29;15.40;99.90
18797;DHT22;9526;52.612;13.300;2023-08-07T04:26:52;15.40;99.90
18797;DHT22;9526;52.612;13.300;2023-08-07T04:29:18;15.50;99.90
18797;DHT22;9526;52.612;13.300;2023-08-07T04:31:42;15.40;99.90
18797;DHT22;9526;52.612;13.300;2023-08-07T04:34:05;15.40;99.90
18797;DHT22;9526;52.612;13.300;2023-08-07T04:36:29;15.40;99.90
18797;DHT22;9526;52.612;13.300;2023-08-07T04:38:53;15.40;99.90
18797;DHT22;9526;52.612;13.300;2023-08-07T04:41:17;15.40;99.90
18797;DHT22;9526;52.612;13.300;2023-08-07T04:43:41;15.50;99.90
18797;DHT22;9526;52.612;13.300;2023-08-07T04:46:07;15.50;99.90
18797;DHT22;9526;52.612;13.300;2023-08-07T04:48:31;15.50;99.90
18797;DHT22;9526;52.612;13.300;2023-08-07T04:50:55;15.50;99.90
18797;DHT22;9526;52.612;13.300;2023-08-07T04:53:19;15.50;99.90
18797;DHT22;9526;52.612;13.300;2023-08-07T04:55:43;15.60;99.90
18797;DHT22;9526;52.612;13.300;2023-08-07T04:58:07;15.60;99.90
18797;DHT22;9526;52.612;13.300;2023-08-07T05:00:31;15.60;99.90
18797;DHT22;9526;52.612;13.300;2023-08-07T05:02:56;15.70;99.90
18797;DHT22;9526;52.612;13.300;2023-08-07T05:05:20;15.60;99.90
18797;DHT22;9526;52.612;13.300;2023-08-07T05:07:45;15.70;99.90
18797;DHT22;9526;52.612;13.300;2023-08-07T05:10:09;15.60;99.90
18797;DHT22;9526;52.612;13.300;2023-08-07T05:12:33;15.60;99.90
18797;DHT22;9526;52.612;13.300;2023-08-07T05:14:57;15.60;99.90
18797;DHT22;9526;52.612;13.300;2023-08-07T05:17:20;15.70;99.90
18797;DHT22;9526;52.612;13.300;2023-08-07T05:19:46;15.70;99.90
18797;DHT22;9526;52.612;13.300;2023-08-07T05:22:10;15.70;99.90
18797;DHT22;9526;52.612;13.300;2023-08-07T05:24:33;15.80;99.90
18797;DHT22;9526;52.612;13.300;2023-08-07T05:27:01;15.80;99.90
18797;DHT22;9526;52.612;13.300;2023-08-07T05:29:25;15.80;99.90
18797;DHT22;9526;52.612;13.300;2023-08-07T05:31:48;15.70;99.90
18797;DHT22;9526;52.612;13.300;2023-08-07T05:34:12;15.80;99.90
18797;DHT22;9526;52.612;13.300;2023-08-07T05:36:37;15.80;99.90
18797;DHT22;9526;52.612;13.300;2023-08-07T05:39:01;15.80;99.90
18797;DHT22;9526;52.612;13.300;2023-08-07T05:41:26;15.80;99.90
18797;DHT22;9526;52.612;13.300;2023-08-07T05:43:50;15.90;99.90
18797;DHT22;9526;52.612;13.300;2023-08-07T05:46:13;16.00;99.90
18797;DHT22;9526;52.612;13.300;2023-08-07T05:48:37;15.90;99.90
18797;DHT22;9526;52.612;13.300;2023-08-07T05:51:01;15.90;99.90
18797;DHT22;9526;52.612;13.300;2023-08-07T05:53:26;16.00;99.90
18797;DHT22;9526;52.612;13.300;2023-08-07T05:55:49;16.00;99.90
18797;DHT22;9526;52.612;13.300;2023-08-07T05:58:13;16.00;99.90
18797;DHT22;9526;52.612;13.300;2023-08-07T06:00:37;16.00;99.90
18797;DHT22;9526;52.612;13.300;2023-08-07T06:03:01;16.00;99.90
18797;DHT22;9526;52.612;13.300;2023-08-07T06:05:24;16.10;99.90
18797;DHT22;9526;52.612;13.300;2023-08-07T06:07:48;16.30;99.90
18797;DHT22;9526;52.612;13.300;2023-08-07T06:10:13;16.40;99.90
18797;DHT22;9526;52.612;13.300;2023-08-07T06:12:37;16.50;99.90
18797;DHT22;9526;52.612;13.300;2023-08-07T06:15:01;16.60;99.90
18797;DHT22;9526;52.612;13.300;2023-08-07T06:17:24;16.70;99.90
18797;DHT22;9526;52.612;13.300;2023-08-07T06:19:48;16.90;99.90
18797;DHT22;9526;52.612;13.300;2023-08-07T06:22:12;16.90;99.90
18797;DHT22;9526;52.612;13.300;2023-08-07T06:24:36;17.10;99.90
18797;DHT22;9526;52.612;13.300;2023-08-07T06:27:02;17.20;99.90
18797;DHT22;9526;52.612;13.300;2023-08-07T06:29:26;17.10;99.90
18797;DHT22;9526;52.612;13.300;2023-08-07T06:31:50;17.20;99.90
18797;DHT22;9526;52.612;13.300;2023-08-07T06:34:18;17.20;99.90
18797;DHT22;9526;52.612;13.300;2023-08-07T06:36:41;17.20;99.90
18797;DHT22;9526;52.612;13.300;2023-08-07T06:39:05;17.20;99.90
18797;DHT22;9526;52.612;13.300;2023-08-07T06:41:29;17.30;99.90
18797;DHT22;9526;52.612;13.300;2023-08-07T06:43:54;17.30;99.90
18797;DHT22;9526;52.612;13.300;2023-08-07T06:46:17;17.40;99.90
18797;DHT22;9526;52.612;13.300;2023-08-07T06:48:46;17.40;99.90
18797;DHT22;9526;52.612;13.300;2023-08-07T06:51:10;17.50;99.90
18797;DHT22;9526;52.612;13.300;2023-08-07T06:53:33;17.60;99.90
18797;DHT22;9526;52.612;13.300;2023-08-07T06:55:57;17.60;99.90
18797;DHT22;9526;52.612;13.300;2023-08-07T06:58:21;17.60;99.90
18797;DHT22;9526;52.612;13.300;2023-08-07T07:00:46;17.80;99.90
18797;DHT22;9526;52.612;13.300;2023-08-07T07:03:09;17.90;99.90
18797;DHT22;9526;52.612;13.300;2023-08-07T07:05:33;18.00;99.90
18797;DHT22;9526;52.612;13.300;2023-08-07T07:07:57;17.90;99.90
18797;DHT22;9526;52.612;13.300;2023-08-07T07:10:21;17.90;99.90
18797;DHT22;9526;52.612;13.300;2023-08-07T07:12:45;17.90;99.90
18797;DHT22;9526;52.612;13.300;2023-08-07T07:15:09;18.00;99.90
18797;DHT22;9526;52.612;13.300;2023-08-07T07:17:35;18.10;99.90
18797;DHT22;9526;52.612;13.300;2023-08-07T07:19:58;18.20;99.90
18797;DHT22;9526;52.612;13.300;2023-08-07T07:22:22;18.30;99.90
18797;DHT22;9526;52.612;13.300;2023-08-07T07:24:46;18.40;99.90
18797;DHT22;9526;52.612;13.300;2023-08-07T07:27:09;18.40;99.90
18797;DHT22;9526;52.612;13.300;2023-08-07T07:29:33;18.50;99.90
18797;DHT22;9526;52.612;13.300;2023-08-07T07:31:57;18.50;99.90
18797;DHT22;9526;52.612;13.300;2023-08-07T07:34:22;18.50;99.90
18797;DHT22;9526;52.612;13.300;2023-08-07T07:36:46;18.50;99.90
18797;DHT22;9526;52.612;13.300;2023-08-07T07:39:10;18.50;99.90
18797;DHT22;9526;52.612;13.300;2023-08-07T07:41:34;18.50;99.90
18797;DHT22;9526;52.612;13.300;2023-08-07T07:43:57;18.50;99.90
18797;DHT22;9526;52.612;13.300;2023-08-07T07:46:21;18.60;99.90
18797;DHT22;9526;52.612;13.300;2023-08-07T07:48:45;18.60;99.90
18797;DHT22;9526;52.612;13.300;2023-08-07T07:51:10;18.60;99.90
18797;DHT22;9526;52.612;13.300;2023-08-07T07:53:34;18.60;99.90
18797;DHT22;9526;52.612;13.300;2023-08-07T07:55:58;18.70;99.90
18797;DHT22;9526;52.612;13.300;2023-08-07T07:58:21;18.80;99.90
18797;DHT22;9526;52.612;13.300;2023-08-07T08:00:46;18.90;99.90
18797;DHT22;9526;52.612;13.300;2023-08-07T08:03:10;18.90;99.90
18797;DHT22;9526;52.612;13.300;2023-08-07T08:05:34;18.80;99.90
18797;DHT22;9526;52.612;13.300;2023-08-07T08:07:59;18.80;99.90
18797;DHT22;9526;52.612;13.300;2023-08-07T08:10:23;18.90;99.90
18797;DHT22;9526;52.612;13.300;2023-08-07T08:12:47;19.00;99.90
18797;DHT22;9526;52.612;13.300;2023-08-07T08:15:11;18.90;99.90
18797;DHT22;9526;52.612;13.300;2023-08-07T08:17:35;18.80;99.90
18797;DHT22;9526;52.612;13.300;2023-08-07T08:20:02;18.80;99.90
18797;DHT22;9526;52.612;13.300;2023-08-07T08:22:27;19.00;99.90
18797;DHT22;9526;52.612;13.300;2023-08-07T08:24:52;19.00;99.90
18797;DHT22;9526;52.612;13.300;2023-08-07T08:27:16;19.00;99.90
18797;DHT22;9526;52.612;13.300;2023-08-07T08:29:41;19.00;99.90
18797;DHT22;9526;52.612;13.300;2023-08-07T08:32:05;19.00;99.90
18797;DHT22;9526;52.612;13.300;2023-08-07T08:34:29;19.00;99.90
18797;DHT22;9526;52.612;13.300;2023-08-07T08:36:53;19.20;99.90
18797;DHT22;9526;52.612;13.300;2023-08-07T08:39:17;19.10;99.90
18797;DHT22;9526;52.612;13.300;2023-08-07T08:41:46;19.10;99.90
18797;DHT22;9526;52.612;13.300;2023-08-07T08:44:12;19.20;99.90
18797;DHT22;9526;52.612;13.300;2023-08-07T08:46:38;19.20;99.90
18797;DHT22;9526;52.612;13.300;2023-08-07T08:49:05;19.20;99.90
18797;DHT22;9526;52.612;13.300;2023-08-07T08:51:29;19.20;99.90
18797;DHT22;9526;52.612;13.300;2023-08-07T08:53:53;19.30;99.90
18797;DHT22;9526;52.612;13.300;2023-08-07T08:56:18;19.30;99.90
18797;DHT22;9526;52.612;13.300;2023-08-07T08:58:46;19.40;99.90
18797;DHT22;9526;52.612;13.300;2023-08-07T09:01:11;19.50;99.90
18797;DHT22;9526;52.612;13.300;2023-08-07T09:03:36;19.50;99.90
18797;DHT22;9526;52.612;13.300;2023-08-07T09:06:02;19.70;99.90
18797;DHT22;9526;52.612;13.300;2023-08-07T09:08:30;19.70;99.90
18797;DHT22;9526;52.612;13.300;2023-08-07T09:10:56;19.80;99.90
18797;DHT22;9526;52.612;13.300;2023-08-07T09:13:23;19.80;99.90
18797;DHT22;9526;52.612;13.300;2023-08-07T09:15:50;19.90;99.90
18797;DHT22;9526;52.612;13.300;2023-08-07T09:18:16;19.90;99.90
18797;DHT22;9526;52.612;13.300;2023-08-07T09:20:41;20.00;99.90
18797;DHT22;9526;52.612;13.300;2023-08-07T09:23:07;20.00;99.90
18797;DHT22;9526;52.612;13.300;2023-08-07T09:25:33;20.00;99.90
18797;DHT22;9526;52.612;13.300;2023-08-07T09:28:01;20.00;99.90
18797;DHT22;9526;52.612;13.300;2023-08-07T09:30:28;19.90;99.90
18797;DHT22;9526;52.612;13.300;2023-08-07T09:32:56;19.90;99.90
18797;DHT22;9526;52.612;13.300;2023-08-07T09:35:22;20.00;99.90
18797;DHT22;9526;52.612;13.300;2023-08-07T09:37:47;19.90;99.90
18797;DHT22;9526;52.612;13.300;2023-08-07T09:40:12;20.00;99.90
18797;DHT22;9526;52.612;13.300;2023-08-07T09:42:38;19.80;99.90
18797;DHT22;9526;52.612;13.300;2023-08-07T09:45:19;19.90;99.90
18797;DHT22;9526;52.612;13.300;2023-08-07T09:47:44;19.80;99.90
18797;DHT22;9526;52.612;13.300;2023-08-07T09:50:15;19.80;99.90
18797;DHT22;9526;52.612;13.300;2023-08-07T09:52:40;19.70;99.90
18797;DHT22;9526;52.612;13.300;2023-08-07T09:55:06;19.80;99.90
18797;DHT22;9526;52.612;13.300;2023-08-07T09:57:31;19.80;99.90
18797;DHT22;9526;52.612;13.300;2023-08-07T09:59:56;19.70;99.90
18797;DHT22;9526;52.612;13.300;2023-08-07T10:02:21;19.60;99.90
18797;DHT22;9526;52.612;13.300;2023-08-07T10:04:46;19.70;99.90
18797;DHT22;9526;52.612;13.300;2023-08-07T10:07:14;19.70;99.90
18797;DHT22;9526;52.612;13.300;2023-08-07T10:09:41;19.70;99.90
18797;DHT22;9526;52.612;13.300;2023-08-07T10:12:07;19.70;99.90
18797;DHT22;9526;52.612;13.300;2023-08-07T10:14:32;19.70;99.90
18797;DHT22;9526;52.612;13.300;2023-08-07T10:16:58;19.80;99.90
18797;DHT22;9526;52.612;13.300;2023-08-07T10:19:23;19.90;99.90
18797;DHT22;9526;52.612;13.300;2023-08-07T10:21:48;20.00;99.90
18797;DHT22;9526;52.612;13.300;2023-08-07T10:24:15;20.00;99.90
18797;DHT22;9526;52.612;13.300;2023-08-07T10:26:42;20.10;99.90
18797;DHT22;9526;52.612;13.300;2023-08-07T10:29:10;20.30;99.90
18797;DHT22;9526;52.612;13.300;2023-08-07T10:31:36;20.40;99.90
18797;DHT22;9526;52.612;13.300;2023-08-07T10:34:01;20.50;99.90
18797;DHT22;9526;52.612;13.300;2023-08-07T10:36:32;20.40;99.90
18797;DHT22;9526;52.612;13.300;2023-08-07T10:39:06;20.40;99.90
18797;DHT22;9526;52.612;13.300;2023-08-07T10:41:38;20.50;99.90
18797;DHT22;9526;52.612;13.300;2023-08-07T10:44:03;20.60;99.90
18797;DHT22;9526;52.612;13.300;2023-08-07T10:46:27;20.60;99.90
18797;DHT22;9526;52.612;13.300;2023-08-07T10:48:54;20.70;99.90
18797;DHT22;9526;52.612;13.300;2023-08-07T10:51:20;20.60;99.90
18797;DHT22;9526;52.612;13.300;2023-08-07T10:53:48;20.40;99.90
18797;DHT22;9526;52.612;13.300;2023-08-07T10:56:16;20.00;99.90
18797;DHT22;9526;52.612;13.300;2023-08-07T10:58:49;20.00;99.90
18797;DHT22;9526;52.612;13.300;2023-08-07T11:01:32;19.80;99.90
18797;DHT22;9526;52.612;13.300;2023-08-07T11:04:06;19.90;99.90
18797;DHT22;9526;52.612;13.300;2023-08-07T11:06:32;20.00;99.90
18797;DHT22;9526;52.612;13.300;2023-08-07T11:08:57;20.00;99.90
18797;DHT22;9526;52.612;13.300;2023-08-07T11:11:21;20.00;99.90
18797;DHT22;9526;52.612;13.300;2023-08-07T11:13:46;19.90;99.90
18797;DHT22;9526;52.612;13.300;2023-08-07T11:16:11;19.90;99.90
18797;DHT22;9526;52.612;13.300;2023-08-07T11:18:36;20.00;99.90
18797;DHT22;9526;52.612;13.300;2023-08-07T11:21:03;20.10;99.90
18797;DHT22;9526;52.612;13.300;2023-08-07T11:23:27;20.20;99.90
18797;DHT22;9526;52.612;13.300;2023-08-07T11:25:52;20.00;99.90
18797;DHT22;9526;52.612;13.300;2023-08-07T11:28:18;20.10;99.90
18797;DHT22;9526;52.612;13.300;2023-08-07T11:30:44;20.10;99.90
18797;DHT22;9526;52.612;13.300;2023-08-07T11:33:08;20.20;99.90
18797;DHT22;9526;52.612;13.300;2023-08-07T11:35:32;20.20;99.90
18797;DHT22;9526;52.612;13.300;2023-08-07T11:37:56;20.20;99.90
18797;DHT22;9526;52.612;13.300;2023-08-07T11:40:20;20.20;99.90
18797;DHT22;9526;52.612;13.300;2023-08-07T11:42:43;20.30;99.90
18797;DHT22;9526;52.612;13.300;2023-08-07T11:45:08;20.50;99.90
18797;DHT22;9526;52.612;13.300;2023-08-07T11:47:33;20.70;99.90
18797;DHT22;9526;52.612;13.300;2023-08-07T11:49:58;20.80;99.90
18797;DHT22;9526;52.612;13.300;2023-08-07T11:52:22;20.70;99.90
18797;DHT22;9526;52.612;13.300;2023-08-07T11:54:47;20.90;99.90
18797;DHT22;9526;52.612;13.300;2023-08-07T11:57:16;21.00;99.90
18797;DHT22;9526;52.612;13.300;2023-08-07T11:59:40;21.20;99.90
18797;DHT22;9526;52.612;13.300;2023-08-07T12:02:09;21.40;99.90
18797;DHT22;9526;52.612;13.300;2023-08-07T12:04:37;21.50;99.90
18797;DHT22;9526;52.612;13.300;2023-08-07T12:07:01;21.70;99.90
18797;DHT22;9526;52.612;13.300;2023-08-07T12:09:26;21.70;99.90
18797;DHT22;9526;52.612;13.300;2023-08-07T12:11:49;21.70;99.90
18797;DHT22;9526;52.612;13.300;2023-08-07T12:14:14;21.80;99.90
18797;DHT22;9526;52.612;13.300;2023-08-07T12:16:39;21.80;99.90
18797;DHT22;9526;52.612;13.300;2023-08-07T12:19:03;21.80;99.90
18797;DHT22;9526;52.612;13.300;2023-08-07T12:21:28;22.00;99.90
18797;DHT22;9526;52.612;13.300;2023-08-07T12:23:56;22.30;99.90
18797;DHT22;9526;52.612;13.300;2023-08-07T12:26:20;22.20;99.90
18797;DHT22;9526;52.612;13.300;2023-08-07T12:28:44;22.10;99.90
18797;DHT22;9526;52.612;13.300;2023-08-07T12:31:07;22.50;99.90
18797;DHT22;9526;52.612;13.300;2023-08-07T12:33:31;22.70;99.90
18797;DHT22;9526;52.612;13.300;2023-08-07T12:35:55;22.90;99.90
18797;DHT22;9526;52.612;13.300;2023-08-07T12:38:20;22.90;99.90
18797;DHT22;9526;52.612;13.300;2023-08-07T12:40:44;22.80;99.90
18797;DHT22;9526;52.612;13.300;2023-08-07T12:43:08;22.70;99.90
18797;DHT22;9526;52.612;13.300;2023-08-07T12:45:33;22.60;99.90
18797;DHT22;9526;52.612;13.300;2023-08-07T12:48:00;22.50;99.90
18797;DHT22;9526;52.612;13.300;2023-08-07T12:50:24;22.40;99.90
18797;DHT22;9526;52.612;13.300;2023-08-07T12:52:48;22.10;99.90
18797;DHT22;9526;52.612;13.300;2023-08-07T12:55:13;22.00;99.90
18797;DHT22;9526;52.612;13.300;2023-08-07T12:57:37;22.10;99.90
18797;DHT22;9526;52.612;13.300;2023-08-07T13:00:00;22.10;99.90
18797;DHT22;9526;52.612;13.300;2023-08-07T13:02:24;22.10;99.90
18797;DHT22;9526;52.612;13.300;2023-08-07T13:04:48;22.30;99.90
18797;DHT22;9526;52.612;13.300;2023-08-07T13:07:12;22.60;99.90
18797;DHT22;9526;52.612;13.300;2023-08-07T13:09:36;23.00;99.90
18797;DHT22;9526;52.612;13.300;2023-08-07T13:12:01;23.20;99.90
18797;DHT22;9526;52.612;13.300;2023-08-07T13:14:25;23.20;99.90
18797;DHT22;9526;52.612;13.300;2023-08-07T13:16:49;23.30;99.90
18797;DHT22;9526;52.612;13.300;2023-08-07T13:19:13;22.90;99.90
18797;DHT22;9526;52.612;13.300;2023-08-07T13:21:36;22.90;99.90
18797;DHT22;9526;52.612;13.300;2023-08-07T13:24:00;22.90;99.90
18797;DHT22;9526;52.612;13.300;2023-08-07T13:26:24;22.90;99.90
18797;DHT22;9526;52.612;13.300;2023-08-07T13:28:49;23.00;99.90
18797;DHT22;9526;52.612;13.300;2023-08-07T13:31:13;22.90;99.90
18797;DHT22;9526;52.612;13.300;2023-08-07T13:33:37;23.00;99.90
18797;DHT22;9526;52.612;13.300;2023-08-07T13:36:00;23.10;99.90
18797;DHT22;9526;52.612;13.300;2023-08-07T13:38:24;23.10;99.90
18797;DHT22;9526;52.612;13.300;2023-08-07T13:40:48;23.30;99.90
18797;DHT22;9526;52.612;13.300;2023-08-07T13:43:15;23.50;99.90
18797;DHT22;9526;52.612;13.300;2023-08-07T13:45:41;23.60;99.90
18797;DHT22;9526;52.612;13.300;2023-08-07T13:48:05;23.50;99.90
18797;DHT22;9526;52.612;13.300;2023-08-07T13:50:32;23.80;99.90
18797;DHT22;9526;52.612;13.300;2023-08-07T13:52:57;23.70;99.90
18797;DHT22;9526;52.612;13.300;2023-08-07T13:55:35;23.50;99.90
18797;DHT22;9526;52.612;13.300;2023-08-07T13:57:59;23.30;99.90
18797;DHT22;9526;52.612;13.300;2023-08-07T14:00:23;23.20;99.90
18797;DHT22;9526;52.612;13.300;2023-08-07T14:02:48;23.00;99.90
18797;DHT22;9526;52.612;13.300;2023-08-07T14:05:12;22.90;99.90
18797;DHT22;9526;52.612;13.300;2023-08-07T14:07:38;22.80;99.90
18797;DHT22;9526;52.612;13.300;2023-08-07T14:10:01;22.40;99.90
18797;DHT22;9526;52.612;13.300;2023-08-07T14:12:25;22.50;99.90
18797;DHT22;9526;52.612;13.300;2023-08-07T14:14:49;22.50;99.90
18797;DHT22;9526;52.612;13.300;2023-08-07T14:17:13;22.40;99.90
18797;DHT22;9526;52.612;13.300;2023-08-07T14:19:38;22.50;99.90
18797;DHT22;9526;52.612;13.300;2023-08-07T14:22:02;22.50;99.90
18797;DHT22;9526;52.612;13.300;2023-08-07T14:24:27;22.70;99.90
18797;DHT22;9526;52.612;13.300;2023-08-07T14:26:50;22.80;99.90
18797;DHT22;9526;52.612;13.300;2023-08-07T14:29:14;22.70;99.90
18797;DHT22;9526;52.612;13.300;2023-08-07T14:31:38;22.60;99.90
18797;DHT22;9526;52.612;13.300;2023-08-07T14:34:02;22.30;99.90
18797;DHT22;9526;52.612;13.300;2023-08-07T14:36:27;22.40;99.90
18797;DHT22;9526;52.612;13.300;2023-08-07T14:38:51;22.60;99.90
18797;DHT22;9526;52.612;13.300;2023-08-07T14:41:15;22.70;99.90
18797;DHT22;9526;52.612;13.300;2023-08-07T14:43:39;22.50;99.90
18797;DHT22;9526;52.612;13.300;2023-08-07T14:46:02;22.50;99.90
18797;DHT22;9526;52.612;13.300;2023-08-07T14:48:26;22.30;99.90
18797;DHT22;9526;52.612;13.300;2023-08-07T14:50:50;22.10;99.90
18797;DHT22;9526;52.612;13.300;2023-08-07T14:53:15;22.00;99.90
18797;DHT22;9526;52.612;13.300;2023-08-07T14:55:39;21.90;99.90
18797;DHT22;9526;52.612;13.300;2023-08-07T14:58:04;21.70;99.90
18797;DHT22;9526;52.612;13.300;2023-08-07T15:00:28;21.50;99.90
18797;DHT22;9526;52.612;13.300;2023-08-07T15:02:51;21.30;99.90
18797;DHT22;9526;52.612;13.300;2023-08-07T15:05:16;21.30;99.90
18797;DHT22;9526;52.612;13.300;2023-08-07T15:07:41;21.30;99.90
18797;DHT22;9526;52.612;13.300;2023-08-07T15:10:08;21.30;99.90
18797;DHT22;9526;52.612;13.300;2023-08-07T15:12:32;21.30;99.90
18797;DHT22;9526;52.612;13.300;2023-08-07T15:14:55;21.20;99.90